<?xml version='1.0' encoding='UTF-8'?>
<gpx version="1.1" creator="https://www.komoot.de" xmlns="http://www.topografix.com/GPX/1/1" xmlns:xsi="http://www.w3.org/2001/XMLSchema-instance" xsi:schemaLocation="http://www.topografix.com/GPX/1/1 http://www.topografix.com/GPX/1/1/gpx.xsd">
  <metadata>
    <name>Kloster Rosenthal und Burgruine Stauf</name>
    <author>
      <link href="https://www.komoot.de">
        <text>komoot</text>
        <type>text/html</type>
      </link>
    </author>
  </metadata>
  <trk>
    <name>Kloster Rosenthal und Burgruine Stauf</name>
    <trkseg>
      <trkpt lat="49.536115" lon="8.012177">
        <ele>219.938356</ele>
        <time>2022-11-28T18:58:25.998Z</time>
      </trkpt>
      <trkpt lat="49.536351" lon="8.012475">
        <ele>219.938356</ele>
        <time>2022-11-28T18:58:58.427Z</time>
      </trkpt>
      <trkpt lat="49.536522" lon="8.012327">
        <ele>219.938356</ele>
        <time>2022-11-28T18:59:19.207Z</time>
      </trkpt>
      <trkpt lat="49.536827" lon="8.012207">
        <ele>219.938356</ele>
        <time>2022-11-28T18:59:52.721Z</time>
      </trkpt>
      <trkpt lat="49.536988" lon="8.012165">
        <ele>219.841437</ele>
        <time>2022-11-28T19:00:09.998Z</time>
      </trkpt>
      <trkpt lat="49.537165" lon="8.012140">
        <ele>219.626101</ele>
        <time>2022-11-28T19:00:28.663Z</time>
      </trkpt>
      <trkpt lat="49.537270" lon="8.011116">
        <ele>218.811030</ele>
        <time>2022-11-28T19:01:39.378Z</time>
      </trkpt>
      <trkpt lat="49.537262" lon="8.010465">
        <ele>218.299114</ele>
        <time>2022-11-28T19:02:22.236Z</time>
      </trkpt>
      <trkpt lat="49.537214" lon="8.009856">
        <ele>217.816791</ele>
        <time>2022-11-28T19:03:03.022Z</time>
      </trkpt>
      <trkpt lat="49.537088" lon="8.008943">
        <ele>218.468141</ele>
        <time>2022-11-28T19:04:06.184Z</time>
      </trkpt>
      <trkpt lat="49.537101" lon="8.008200">
        <ele>219.080590</ele>
        <time>2022-11-28T19:04:57.050Z</time>
      </trkpt>
      <trkpt lat="49.537089" lon="8.007279">
        <ele>219.839640</ele>
        <time>2022-11-28T19:05:59.636Z</time>
      </trkpt>
      <trkpt lat="49.537083" lon="8.006818">
        <ele>220.274050</ele>
        <time>2022-11-28T19:06:31.191Z</time>
      </trkpt>
      <trkpt lat="49.537064" lon="8.006204">
        <ele>220.936863</ele>
        <time>2022-11-28T19:07:13.672Z</time>
      </trkpt>
      <trkpt lat="49.536903" lon="8.005731">
        <ele>221.512786</ele>
        <time>2022-11-28T19:07:49.945Z</time>
      </trkpt>
      <trkpt lat="49.537064" lon="8.006204">
        <ele>222.088708</ele>
        <time>2022-11-28T19:08:26.735Z</time>
      </trkpt>
      <trkpt lat="49.537529" lon="8.005355">
        <ele>223.411449</ele>
        <time>2022-11-28T19:09:43.499Z</time>
      </trkpt>
      <trkpt lat="49.537903" lon="8.004956">
        <ele>224.537222</ele>
        <time>2022-11-28T19:10:32.114Z</time>
      </trkpt>
      <trkpt lat="49.537964" lon="8.004854">
        <ele>224.759992</ele>
        <time>2022-11-28T19:10:42.417Z</time>
      </trkpt>
      <trkpt lat="49.538301" lon="8.003930">
        <ele>226.462279</ele>
        <time>2022-11-28T19:11:57.716Z</time>
      </trkpt>
      <trkpt lat="49.538519" lon="8.003453">
        <ele>227.399268</ele>
        <time>2022-11-28T19:12:39.519Z</time>
      </trkpt>
      <trkpt lat="49.539230" lon="8.002189">
        <ele>231.000744</ele>
        <time>2022-11-28T19:14:38.770Z</time>
      </trkpt>
      <trkpt lat="49.539653" lon="8.001316">
        <ele>233.365611</ele>
        <time>2022-11-28T19:15:57.696Z</time>
      </trkpt>
      <trkpt lat="49.539988" lon="8.000505">
        <ele>238.441642</ele>
        <time>2022-11-28T19:17:11.972Z</time>
      </trkpt>
      <trkpt lat="49.540121" lon="8.000076">
        <ele>241.053124</ele>
        <time>2022-11-28T19:17:50.685Z</time>
      </trkpt>
      <trkpt lat="49.540375" lon="7.999589">
        <ele>244.484981</ele>
        <time>2022-11-28T19:18:43.146Z</time>
      </trkpt>
      <trkpt lat="49.540562" lon="7.999560">
        <ele>246.075824</ele>
        <time>2022-11-28T19:19:08.774Z</time>
      </trkpt>
      <trkpt lat="49.540627" lon="7.999462">
        <ele>246.845533</ele>
        <time>2022-11-28T19:19:20.842Z</time>
      </trkpt>
      <trkpt lat="49.541670" lon="7.998582">
        <ele>263.528181</ele>
        <time>2022-11-28T19:22:29.621Z</time>
      </trkpt>
      <trkpt lat="49.542620" lon="7.997967">
        <ele>279.093258</ele>
        <time>2022-11-28T19:25:34.181Z</time>
      </trkpt>
      <trkpt lat="49.543187" lon="7.997641">
        <ele>287.726655</ele>
        <time>2022-11-28T19:27:19.497Z</time>
      </trkpt>
      <trkpt lat="49.544254" lon="7.997512">
        <ele>302.680544</ele>
        <time>2022-11-28T19:29:57.261Z</time>
      </trkpt>
      <trkpt lat="49.544560" lon="7.997626">
        <ele>305.864381</ele>
        <time>2022-11-28T19:30:39.268Z</time>
      </trkpt>
      <trkpt lat="49.545673" lon="7.998362">
        <ele>318.112991</ele>
        <time>2022-11-28T19:33:21.311Z</time>
      </trkpt>
      <trkpt lat="49.547161" lon="7.998861">
        <ele>329.828081</ele>
        <time>2022-11-28T19:36:36.690Z</time>
      </trkpt>
      <trkpt lat="49.547693" lon="7.998928">
        <ele>333.247906</ele>
        <time>2022-11-28T19:37:41.158Z</time>
      </trkpt>
      <trkpt lat="49.547958" lon="7.998855">
        <ele>333.039902</ele>
        <time>2022-11-28T19:38:10.718Z</time>
      </trkpt>
      <trkpt lat="49.548257" lon="7.998444">
        <ele>332.730341</ele>
        <time>2022-11-28T19:38:51.977Z</time>
      </trkpt>
      <trkpt lat="49.548584" lon="7.997386">
        <ele>332.142842</ele>
        <time>2022-11-28T19:40:12.732Z</time>
      </trkpt>
      <trkpt lat="49.548653" lon="7.997246">
        <ele>332.054705</ele>
        <time>2022-11-28T19:40:25.502Z</time>
      </trkpt>
      <trkpt lat="49.548728" lon="7.996672">
        <ele>331.217987</ele>
        <time>2022-11-28T19:41:06.811Z</time>
      </trkpt>
      <trkpt lat="49.548040" lon="7.994719">
        <ele>325.904735</ele>
        <time>2022-11-28T19:43:42.523Z</time>
      </trkpt>
      <trkpt lat="49.547314" lon="7.993348">
        <ele>324.991561</ele>
        <time>2022-11-28T19:45:43.936Z</time>
      </trkpt>
      <trkpt lat="49.546963" lon="7.991510">
        <ele>327.983044</ele>
        <time>2022-11-28T19:47:59.683Z</time>
      </trkpt>
      <trkpt lat="49.547029" lon="7.991268">
        <ele>329.286035</ele>
        <time>2022-11-28T19:48:20.167Z</time>
      </trkpt>
      <trkpt lat="49.547134" lon="7.991139">
        <ele>330.313273</ele>
        <time>2022-11-28T19:48:36.270Z</time>
      </trkpt>
      <trkpt lat="49.547413" lon="7.990878">
        <ele>332.810050</ele>
        <time>2022-11-28T19:49:18.120Z</time>
      </trkpt>
      <trkpt lat="49.547522" lon="7.990859">
        <ele>333.649229</ele>
        <time>2022-11-28T19:49:32.619Z</time>
      </trkpt>
      <trkpt lat="49.547800" lon="7.990990">
        <ele>335.873143</ele>
        <time>2022-11-28T19:50:11.396Z</time>
      </trkpt>
      <trkpt lat="49.549582" lon="7.992934">
        <ele>360.226622</ele>
        <time>2022-11-28T19:55:29.400Z</time>
      </trkpt>
      <trkpt lat="49.550177" lon="7.993921">
        <ele>366.073862</ele>
        <time>2022-11-28T19:57:24.384Z</time>
      </trkpt>
      <trkpt lat="49.550492" lon="7.994698">
        <ele>370.050184</ele>
        <time>2022-11-28T19:58:33.054Z</time>
      </trkpt>
      <trkpt lat="49.551063" lon="7.995675">
        <ele>373.429599</ele>
        <time>2022-11-28T20:00:02.325Z</time>
      </trkpt>
      <trkpt lat="49.551683" lon="7.995864">
        <ele>375.043129</ele>
        <time>2022-11-28T20:01:12.295Z</time>
      </trkpt>
      <trkpt lat="49.551825" lon="7.995871">
        <ele>375.405843</ele>
        <time>2022-11-28T20:01:28.256Z</time>
      </trkpt>
      <trkpt lat="49.551995" lon="7.995634">
        <ele>375.991040</ele>
        <time>2022-11-28T20:01:53.559Z</time>
      </trkpt>
      <trkpt lat="49.551825" lon="7.995871">
        <ele>376.576238</ele>
        <time>2022-11-28T20:02:18.656Z</time>
      </trkpt>
      <trkpt lat="49.551683" lon="7.995864">
        <ele>377.125445</ele>
        <time>2022-11-28T20:02:34.102Z</time>
      </trkpt>
      <trkpt lat="49.551063" lon="7.995675">
        <ele>379.589281</ele>
        <time>2022-11-28T20:03:42.658Z</time>
      </trkpt>
      <trkpt lat="49.551476" lon="7.996064">
        <ele>381.476134</ele>
        <time>2022-11-28T20:04:40.185Z</time>
      </trkpt>
      <trkpt lat="49.551685" lon="7.996214">
        <ele>382.374897</ele>
        <time>2022-11-28T20:05:07.583Z</time>
      </trkpt>
      <trkpt lat="49.552385" lon="7.996418">
        <ele>384.061782</ele>
        <time>2022-11-28T20:06:30.442Z</time>
      </trkpt>
      <trkpt lat="49.552461" lon="7.996522">
        <ele>384.180202</ele>
        <time>2022-11-28T20:06:41.901Z</time>
      </trkpt>
      <trkpt lat="49.552529" lon="7.996849">
        <ele>384.439783</ele>
        <time>2022-11-28T20:07:04.955Z</time>
      </trkpt>
      <trkpt lat="49.552848" lon="7.997542">
        <ele>385.082123</ele>
        <time>2022-11-28T20:08:00.781Z</time>
      </trkpt>
      <trkpt lat="49.552831" lon="7.997904">
        <ele>385.356488</ele>
        <time>2022-11-28T20:08:24.830Z</time>
      </trkpt>
      <trkpt lat="49.552916" lon="7.998282">
        <ele>385.658910</ele>
        <time>2022-11-28T20:08:51.249Z</time>
      </trkpt>
      <trkpt lat="49.553081" lon="7.998843">
        <ele>384.667391</ele>
        <time>2022-11-28T20:09:32.523Z</time>
      </trkpt>
      <trkpt lat="49.553497" lon="8.000259">
        <ele>381.876916</ele>
        <time>2022-11-28T20:11:20.110Z</time>
      </trkpt>
      <trkpt lat="49.554865" lon="8.001715">
        <ele>375.766167</ele>
        <time>2022-11-28T20:14:18.239Z</time>
      </trkpt>
      <trkpt lat="49.555546" lon="8.002384">
        <ele>371.743486</ele>
        <time>2022-11-28T20:15:47.111Z</time>
      </trkpt>
      <trkpt lat="49.555801" lon="8.002674">
        <ele>369.465724</ele>
        <time>2022-11-28T20:16:22.526Z</time>
      </trkpt>
      <trkpt lat="49.555881" lon="8.002770">
        <ele>368.736994</ele>
        <time>2022-11-28T20:16:33.811Z</time>
      </trkpt>
      <trkpt lat="49.555978" lon="8.003175">
        <ele>366.723928</ele>
        <time>2022-11-28T20:17:05.571Z</time>
      </trkpt>
      <trkpt lat="49.556563" lon="8.004119">
        <ele>360.636489</ele>
        <time>2022-11-28T20:18:44.235Z</time>
      </trkpt>
      <trkpt lat="49.557584" lon="8.004658">
        <ele>349.561020</ele>
        <time>2022-11-28T20:20:55.092Z</time>
      </trkpt>
      <trkpt lat="49.558162" lon="8.004921">
        <ele>343.373159</ele>
        <time>2022-11-28T20:22:08.673Z</time>
      </trkpt>
      <trkpt lat="49.558567" lon="8.005106">
        <ele>340.061534</ele>
        <time>2022-11-28T20:22:59.189Z</time>
      </trkpt>
      <trkpt lat="49.559396" lon="8.005937">
        <ele>333.246106</ele>
        <time>2022-11-28T20:24:51.656Z</time>
      </trkpt>
      <trkpt lat="49.559479" lon="8.006392">
        <ele>331.132993</ele>
        <time>2022-11-28T20:25:25.218Z</time>
      </trkpt>
      <trkpt lat="49.559697" lon="8.008300">
        <ele>324.603372</ele>
        <time>2022-11-28T20:27:41.563Z</time>
      </trkpt>
      <trkpt lat="49.560017" lon="8.009752">
        <ele>319.693254</ele>
        <time>2022-11-28T20:29:32.276Z</time>
      </trkpt>
      <trkpt lat="49.560076" lon="8.010229">
        <ele>318.082959</ele>
        <time>2022-11-28T20:30:08.123Z</time>
      </trkpt>
      <trkpt lat="49.560159" lon="8.010697">
        <ele>316.474049</ele>
        <time>2022-11-28T20:30:43.287Z</time>
      </trkpt>
      <trkpt lat="49.560134" lon="8.010784">
        <ele>316.158503</ele>
        <time>2022-11-28T20:30:49.518Z</time>
      </trkpt>
      <trkpt lat="49.560100" lon="8.010899">
        <ele>315.739404</ele>
        <time>2022-11-28T20:30:58.100Z</time>
      </trkpt>
      <trkpt lat="49.560094" lon="8.011316">
        <ele>314.356239</ele>
        <time>2022-11-28T20:31:28.895Z</time>
      </trkpt>
      <trkpt lat="49.560106" lon="8.011685">
        <ele>313.131051</ele>
        <time>2022-11-28T20:31:56.273Z</time>
      </trkpt>
      <trkpt lat="49.560117" lon="8.012007">
        <ele>312.061779</ele>
        <time>2022-11-28T20:32:17.411Z</time>
      </trkpt>
      <trkpt lat="49.560142" lon="8.012013">
        <ele>311.932430</ele>
        <time>2022-11-28T20:32:20.608Z</time>
      </trkpt>
      <trkpt lat="49.560173" lon="8.012133">
        <ele>311.840749</ele>
        <time>2022-11-28T20:32:30.664Z</time>
      </trkpt>
      <trkpt lat="49.560173" lon="8.012133">
        <ele>311.840749</ele>
        <time>2022-11-28T20:32:30.664Z</time>
      </trkpt>
      <trkpt lat="49.560178" lon="8.012167">
        <ele>311.859713</ele>
        <time>2022-11-28T20:32:33.228Z</time>
      </trkpt>
      <trkpt lat="49.560211" lon="8.012166">
        <ele>311.887393</ele>
        <time>2022-11-28T20:32:37.008Z</time>
      </trkpt>
      <trkpt lat="49.560178" lon="8.012167">
        <ele>311.915072</ele>
        <time>2022-11-28T20:32:40.472Z</time>
      </trkpt>
      <trkpt lat="49.560173" lon="8.012133">
        <ele>311.934037</ele>
        <time>2022-11-28T20:32:42.776Z</time>
      </trkpt>
      <trkpt lat="49.560173" lon="8.012133">
        <ele>311.934037</ele>
        <time>2022-11-28T20:32:42.776Z</time>
      </trkpt>
      <trkpt lat="49.560142" lon="8.012013">
        <ele>312.004299</ele>
        <time>2022-11-28T20:32:51.924Z</time>
      </trkpt>
      <trkpt lat="49.560117" lon="8.012007">
        <ele>312.025517</ele>
        <time>2022-11-28T20:32:54.944Z</time>
      </trkpt>
      <trkpt lat="49.560136" lon="8.012205">
        <ele>312.134395</ele>
        <time>2022-11-28T20:33:09.808Z</time>
      </trkpt>
      <trkpt lat="49.560010" lon="8.012217">
        <ele>312.240263</ele>
        <time>2022-11-28T20:33:22.992Z</time>
      </trkpt>
      <trkpt lat="49.559903" lon="8.012272">
        <ele>312.334851</ele>
        <time>2022-11-28T20:33:35.451Z</time>
      </trkpt>
      <trkpt lat="49.559840" lon="8.012493">
        <ele>312.466166</ele>
        <time>2022-11-28T20:33:51.696Z</time>
      </trkpt>
      <trkpt lat="49.559764" lon="8.012938">
        <ele>312.716484</ele>
        <time>2022-11-28T20:34:22.371Z</time>
      </trkpt>
      <trkpt lat="49.559776" lon="8.014025">
        <ele>313.342480</ele>
        <time>2022-11-28T20:35:42.978Z</time>
      </trkpt>
      <trkpt lat="49.559755" lon="8.014199">
        <ele>313.977356</ele>
        <time>2022-11-28T20:35:58.788Z</time>
      </trkpt>
      <trkpt lat="49.559661" lon="8.014291">
        <ele>314.593098</ele>
        <time>2022-11-28T20:36:10.877Z</time>
      </trkpt>
      <trkpt lat="49.559529" lon="8.014398">
        <ele>315.417834</ele>
        <time>2022-11-28T20:36:28.222Z</time>
      </trkpt>
      <trkpt lat="49.559432" lon="8.014502">
        <ele>316.071232</ele>
        <time>2022-11-28T20:36:44.039Z</time>
      </trkpt>
      <trkpt lat="49.559133" lon="8.014493">
        <ele>317.725058</ele>
        <time>2022-11-28T20:37:19.087Z</time>
      </trkpt>
      <trkpt lat="49.558987" lon="8.014660">
        <ele>318.730428</ele>
        <time>2022-11-28T20:37:39.397Z</time>
      </trkpt>
      <trkpt lat="49.558857" lon="8.014987">
        <ele>320.106224</ele>
        <time>2022-11-28T20:38:11.765Z</time>
      </trkpt>
      <trkpt lat="49.558732" lon="8.015304">
        <ele>321.436997</ele>
        <time>2022-11-28T20:38:38.735Z</time>
      </trkpt>
      <trkpt lat="49.558669" lon="8.015496">
        <ele>322.208848</ele>
        <time>2022-11-28T20:38:56.858Z</time>
      </trkpt>
      <trkpt lat="49.558458" lon="8.016144">
        <ele>324.394419</ele>
        <time>2022-11-28T20:39:52.459Z</time>
      </trkpt>
      <trkpt lat="49.558255" lon="8.017143">
        <ele>327.150725</ele>
        <time>2022-11-28T20:41:10.535Z</time>
      </trkpt>
      <trkpt lat="49.557941" lon="8.018250">
        <ele>330.331833</ele>
        <time>2022-11-28T20:42:36.205Z</time>
      </trkpt>
      <trkpt lat="49.557280" lon="8.018546">
        <ele>333.710026</ele>
        <time>2022-11-28T20:43:55.241Z</time>
      </trkpt>
      <trkpt lat="49.557115" lon="8.018905">
        <ele>335.131183</ele>
        <time>2022-11-28T20:44:28.925Z</time>
      </trkpt>
      <trkpt lat="49.557065" lon="8.019069">
        <ele>335.716506</ele>
        <time>2022-11-28T20:44:42.614Z</time>
      </trkpt>
      <trkpt lat="49.557046" lon="8.019223">
        <ele>336.222856</ele>
        <time>2022-11-28T20:44:55.002Z</time>
      </trkpt>
      <trkpt lat="49.556936" lon="8.019260">
        <ele>336.783476</ele>
        <time>2022-11-28T20:45:08.555Z</time>
      </trkpt>
      <trkpt lat="49.556853" lon="8.019288">
        <ele>337.206545</ele>
        <time>2022-11-28T20:45:18.520Z</time>
      </trkpt>
      <trkpt lat="49.556607" lon="8.019371">
        <ele>338.460471</ele>
        <time>2022-11-28T20:45:49.516Z</time>
      </trkpt>
      <trkpt lat="49.556427" lon="8.019311">
        <ele>339.377475</ele>
        <time>2022-11-28T20:46:11.376Z</time>
      </trkpt>
      <trkpt lat="49.556258" lon="8.019223">
        <ele>340.109043</ele>
        <time>2022-11-28T20:46:33.251Z</time>
      </trkpt>
      <trkpt lat="49.556074" lon="8.018911">
        <ele>341.190537</ele>
        <time>2022-11-28T20:47:06.102Z</time>
      </trkpt>
      <trkpt lat="49.555936" lon="8.018828">
        <ele>341.776222</ele>
        <time>2022-11-28T20:47:23.809Z</time>
      </trkpt>
      <trkpt lat="49.555746" lon="8.018814">
        <ele>342.528304</ele>
        <time>2022-11-28T20:47:46.807Z</time>
      </trkpt>
      <trkpt lat="49.555718" lon="8.018863">
        <ele>342.695788</ele>
        <time>2022-11-28T20:47:51.961Z</time>
      </trkpt>
      <trkpt lat="49.555654" lon="8.018976">
        <ele>343.080539</ele>
        <time>2022-11-28T20:48:03.468Z</time>
      </trkpt>
      <trkpt lat="49.555716" lon="8.019403">
        <ele>344.202838</ele>
        <time>2022-11-28T20:48:35.659Z</time>
      </trkpt>
      <trkpt lat="49.555966" lon="8.020091">
        <ele>346.225446</ele>
        <time>2022-11-28T20:49:30.908Z</time>
      </trkpt>
      <trkpt lat="49.556165" lon="8.021142">
        <ele>345.603428</ele>
        <time>2022-11-28T20:50:42.189Z</time>
      </trkpt>
      <trkpt lat="49.556127" lon="8.021313">
        <ele>345.409093</ele>
        <time>2022-11-28T20:50:54.195Z</time>
      </trkpt>
      <trkpt lat="49.555711" lon="8.021989">
        <ele>344.407308</ele>
        <time>2022-11-28T20:51:57.240Z</time>
      </trkpt>
      <trkpt lat="49.555102" lon="8.023184">
        <ele>340.929776</ele>
        <time>2022-11-28T20:53:44.131Z</time>
      </trkpt>
      <trkpt lat="49.555010" lon="8.023280">
        <ele>340.351895</ele>
        <time>2022-11-28T20:53:56.526Z</time>
      </trkpt>
      <trkpt lat="49.554921" lon="8.023272">
        <ele>339.888165</ele>
        <time>2022-11-28T20:54:06.650Z</time>
      </trkpt>
      <trkpt lat="49.554483" lon="8.024005">
        <ele>336.525342</ele>
        <time>2022-11-28T20:55:19.330Z</time>
      </trkpt>
      <trkpt lat="49.554404" lon="8.024153">
        <ele>335.878600</ele>
        <time>2022-11-28T20:55:33.337Z</time>
      </trkpt>
      <trkpt lat="49.554149" lon="8.024630">
        <ele>333.789191</ele>
        <time>2022-11-28T20:56:17.973Z</time>
      </trkpt>
      <trkpt lat="49.554055" lon="8.024728">
        <ele>333.194425</ele>
        <time>2022-11-28T20:56:30.529Z</time>
      </trkpt>
      <trkpt lat="49.553984" lon="8.024861">
        <ele>332.608792</ele>
        <time>2022-11-28T20:56:42.888Z</time>
      </trkpt>
      <trkpt lat="49.553509" lon="8.025225">
        <ele>329.828593</ele>
        <time>2022-11-28T20:57:40.461Z</time>
      </trkpt>
      <trkpt lat="49.553327" lon="8.025597">
        <ele>328.244382</ele>
        <time>2022-11-28T20:58:13.668Z</time>
      </trkpt>
      <trkpt lat="49.553206" lon="8.026192">
        <ele>326.124237</ele>
        <time>2022-11-28T20:58:58.941Z</time>
      </trkpt>
      <trkpt lat="49.553061" lon="8.026446">
        <ele>324.973843</ele>
        <time>2022-11-28T20:59:23.429Z</time>
      </trkpt>
      <trkpt lat="49.552785" lon="8.026583">
        <ele>323.444353</ele>
        <time>2022-11-28T20:59:56.644Z</time>
      </trkpt>
      <trkpt lat="49.552194" lon="8.026609">
        <ele>320.323904</ele>
        <time>2022-11-28T21:01:01.641Z</time>
      </trkpt>
      <trkpt lat="49.551808" lon="8.026604">
        <ele>318.286602</ele>
        <time>2022-11-28T21:01:43.542Z</time>
      </trkpt>
      <trkpt lat="49.551448" lon="8.026713">
        <ele>316.350285</ele>
        <time>2022-11-28T21:02:24.251Z</time>
      </trkpt>
      <trkpt lat="49.551415" lon="8.026764">
        <ele>316.103650</ele>
        <time>2022-11-28T21:02:30.079Z</time>
      </trkpt>
      <trkpt lat="49.551221" lon="8.026751">
        <ele>315.192911</ele>
        <time>2022-11-28T21:02:51.705Z</time>
      </trkpt>
      <trkpt lat="49.551026" lon="8.026415">
        <ele>314.275776</ele>
        <time>2022-11-28T21:03:24.589Z</time>
      </trkpt>
      <trkpt lat="49.550599" lon="8.026101">
        <ele>312.792238</ele>
        <time>2022-11-28T21:04:15.038Z</time>
      </trkpt>
      <trkpt lat="49.550352" lon="8.026065">
        <ele>312.014254</ele>
        <time>2022-11-28T21:04:40.744Z</time>
      </trkpt>
      <trkpt lat="49.550024" lon="8.026073">
        <ele>310.985601</ele>
        <time>2022-11-28T21:05:14.675Z</time>
      </trkpt>
      <trkpt lat="49.550007" lon="8.026176">
        <ele>310.769381</ele>
        <time>2022-11-28T21:05:21.769Z</time>
      </trkpt>
      <trkpt lat="49.550029" lon="8.026502">
        <ele>310.102581</ele>
        <time>2022-11-28T21:05:43.361Z</time>
      </trkpt>
      <trkpt lat="49.550034" lon="8.026570">
        <ele>309.963355</ele>
        <time>2022-11-28T21:05:48.049Z</time>
      </trkpt>
      <trkpt lat="49.550046" lon="8.026725">
        <ele>309.653341</ele>
        <time>2022-11-28T21:05:59.292Z</time>
      </trkpt>
      <trkpt lat="49.550034" lon="8.026570">
        <ele>309.368159</ele>
        <time>2022-11-28T21:06:09.727Z</time>
      </trkpt>
      <trkpt lat="49.550029" lon="8.026502">
        <ele>309.243133</ele>
        <time>2022-11-28T21:06:14.504Z</time>
      </trkpt>
      <trkpt lat="49.550060" lon="8.026255">
        <ele>308.783518</ele>
        <time>2022-11-28T21:06:31.686Z</time>
      </trkpt>
      <trkpt lat="49.550133" lon="8.026298">
        <ele>308.563457</ele>
        <time>2022-11-28T21:06:40.185Z</time>
      </trkpt>
      <trkpt lat="49.550232" lon="8.026478">
        <ele>308.132348</ele>
        <time>2022-11-28T21:06:55.594Z</time>
      </trkpt>
      <trkpt lat="49.550394" lon="8.026545">
        <ele>307.660033</ele>
        <time>2022-11-28T21:07:15.519Z</time>
      </trkpt>
      <trkpt lat="49.550232" lon="8.026478">
        <ele>307.187718</ele>
        <time>2022-11-28T21:07:32.773Z</time>
      </trkpt>
      <trkpt lat="49.550133" lon="8.026298">
        <ele>306.756610</ele>
        <time>2022-11-28T21:07:50.441Z</time>
      </trkpt>
      <trkpt lat="49.550060" lon="8.026255">
        <ele>306.536548</ele>
        <time>2022-11-28T21:07:59.417Z</time>
      </trkpt>
      <trkpt lat="49.550029" lon="8.026502">
        <ele>306.076933</ele>
        <time>2022-11-28T21:08:18.542Z</time>
      </trkpt>
      <trkpt lat="49.550034" lon="8.026570">
        <ele>305.951907</ele>
        <time>2022-11-28T21:08:23.064Z</time>
      </trkpt>
      <trkpt lat="49.549985" lon="8.026747">
        <ele>305.600334</ele>
        <time>2022-11-28T21:08:38.303Z</time>
      </trkpt>
      <trkpt lat="49.549974" lon="8.026756">
        <ele>305.565266</ele>
        <time>2022-11-28T21:08:39.577Z</time>
      </trkpt>
      <trkpt lat="49.549948" lon="8.026777">
        <ele>305.482609</ele>
        <time>2022-11-28T21:08:42.625Z</time>
      </trkpt>
      <trkpt lat="49.549974" lon="8.026756">
        <ele>305.399952</ele>
        <time>2022-11-28T21:08:45.700Z</time>
      </trkpt>
      <trkpt lat="49.549985" lon="8.026747">
        <ele>305.364883</ele>
        <time>2022-11-28T21:08:47.035Z</time>
      </trkpt>
      <trkpt lat="49.550034" lon="8.026570">
        <ele>305.013311</ele>
        <time>2022-11-28T21:09:03.046Z</time>
      </trkpt>
      <trkpt lat="49.550029" lon="8.026502">
        <ele>304.888285</ele>
        <time>2022-11-28T21:09:07.934Z</time>
      </trkpt>
      <trkpt lat="49.550001" lon="8.026502">
        <ele>304.809439</ele>
        <time>2022-11-28T21:09:11.353Z</time>
      </trkpt>
      <trkpt lat="49.549951" lon="8.026365">
        <ele>304.377400</ele>
        <time>2022-11-28T21:09:22.871Z</time>
      </trkpt>
      <trkpt lat="49.549895" lon="8.026288">
        <ele>303.935542</ele>
        <time>2022-11-28T21:09:31.031Z</time>
      </trkpt>
      <trkpt lat="49.549812" lon="8.026305">
        <ele>303.442546</ele>
        <time>2022-11-28T21:09:42.212Z</time>
      </trkpt>
      <trkpt lat="49.549664" lon="8.026291">
        <ele>302.569489</ele>
        <time>2022-11-28T21:09:59.254Z</time>
      </trkpt>
      <trkpt lat="49.549469" lon="8.026412">
        <ele>301.331787</ele>
        <time>2022-11-28T21:10:20.474Z</time>
      </trkpt>
      <trkpt lat="49.549404" lon="8.026631">
        <ele>300.411809</ele>
        <time>2022-11-28T21:10:40.202Z</time>
      </trkpt>
      <trkpt lat="49.549408" lon="8.026654">
        <ele>300.320846</ele>
        <time>2022-11-28T21:10:42.456Z</time>
      </trkpt>
      <trkpt lat="49.549444" lon="8.026846">
        <ele>299.557380</ele>
        <time>2022-11-28T21:10:57.369Z</time>
      </trkpt>
      <trkpt lat="49.549503" lon="8.026917">
        <ele>299.116651</ele>
        <time>2022-11-28T21:11:06.050Z</time>
      </trkpt>
      <trkpt lat="49.549858" lon="8.026850">
        <ele>297.010814</ele>
        <time>2022-11-28T21:11:47.651Z</time>
      </trkpt>
      <trkpt lat="49.549948" lon="8.026777">
        <ele>296.412003</ele>
        <time>2022-11-28T21:12:00.076Z</time>
      </trkpt>
      <trkpt lat="49.549974" lon="8.026756">
        <ele>296.239171</ele>
        <time>2022-11-28T21:12:03.740Z</time>
      </trkpt>
      <trkpt lat="49.549985" lon="8.026747">
        <ele>296.165844</ele>
        <time>2022-11-28T21:12:05.287Z</time>
      </trkpt>
      <trkpt lat="49.550034" lon="8.026570">
        <ele>295.430721</ele>
        <time>2022-11-28T21:12:19.797Z</time>
      </trkpt>
      <trkpt lat="49.550029" lon="8.026502">
        <ele>295.169297</ele>
        <time>2022-11-28T21:12:24.604Z</time>
      </trkpt>
      <trkpt lat="49.550007" lon="8.026176">
        <ele>293.831066</ele>
        <time>2022-11-28T21:12:49.884Z</time>
      </trkpt>
      <trkpt lat="49.550024" lon="8.026073">
        <ele>293.187786</ele>
        <time>2022-11-28T21:12:57.746Z</time>
      </trkpt>
      <trkpt lat="49.549626" lon="8.025917">
        <ele>289.356582</ele>
        <time>2022-11-28T21:13:44.920Z</time>
      </trkpt>
      <trkpt lat="49.549526" lon="8.025521">
        <ele>286.784554</ele>
        <time>2022-11-28T21:14:15.188Z</time>
      </trkpt>
      <trkpt lat="49.549464" lon="8.025495">
        <ele>286.185116</ele>
        <time>2022-11-28T21:14:22.772Z</time>
      </trkpt>
      <trkpt lat="49.549159" lon="8.025563">
        <ele>283.310091</ele>
        <time>2022-11-28T21:14:59.269Z</time>
      </trkpt>
      <trkpt lat="49.548909" lon="8.025687">
        <ele>280.859997</ele>
        <time>2022-11-28T21:15:31.198Z</time>
      </trkpt>
      <trkpt lat="49.548859" lon="8.025647">
        <ele>280.334446</ele>
        <time>2022-11-28T21:15:38.046Z</time>
      </trkpt>
      <trkpt lat="49.548933" lon="8.025397">
        <ele>278.671207</ele>
        <time>2022-11-28T21:16:00.936Z</time>
      </trkpt>
      <trkpt lat="49.549040" lon="8.024680">
        <ele>272.760846</ele>
        <time>2022-11-28T21:16:58.784Z</time>
      </trkpt>
      <trkpt lat="49.549238" lon="8.024026">
        <ele>266.316933</ele>
        <time>2022-11-28T21:17:58.982Z</time>
      </trkpt>
      <trkpt lat="49.549114" lon="8.024060">
        <ele>264.583640</ele>
        <time>2022-11-28T21:18:15.376Z</time>
      </trkpt>
      <trkpt lat="49.548638" lon="8.024311">
        <ele>257.660116</ele>
        <time>2022-11-28T21:19:20.041Z</time>
      </trkpt>
      <trkpt lat="49.548615" lon="8.024214">
        <ele>256.737987</ele>
        <time>2022-11-28T21:19:28.758Z</time>
      </trkpt>
      <trkpt lat="49.548715" lon="8.023983">
        <ele>254.258440</ele>
        <time>2022-11-28T21:19:51.669Z</time>
      </trkpt>
      <trkpt lat="49.548749" lon="8.023778">
        <ele>252.425008</ele>
        <time>2022-11-28T21:20:08.634Z</time>
      </trkpt>
      <trkpt lat="49.548727" lon="8.023568">
        <ele>251.178369</ele>
        <time>2022-11-28T21:20:26.301Z</time>
      </trkpt>
      <trkpt lat="49.548667" lon="8.023360">
        <ele>249.844338</ele>
        <time>2022-11-28T21:20:45.124Z</time>
      </trkpt>
      <trkpt lat="49.548556" lon="8.023351">
        <ele>248.840314</ele>
        <time>2022-11-28T21:20:58.630Z</time>
      </trkpt>
      <trkpt lat="49.548053" lon="8.023356">
        <ele>244.296735</ele>
        <time>2022-11-28T21:22:00.227Z</time>
      </trkpt>
      <trkpt lat="49.547797" lon="8.023300">
        <ele>241.961172</ele>
        <time>2022-11-28T21:22:30.973Z</time>
      </trkpt>
      <trkpt lat="49.547434" lon="8.023127">
        <ele>238.529099</ele>
        <time>2022-11-28T21:23:15.058Z</time>
      </trkpt>
      <trkpt lat="49.547187" lon="8.022916">
        <ele>236.336643</ele>
        <time>2022-11-28T21:23:45.949Z</time>
      </trkpt>
      <trkpt lat="49.546755" lon="8.022279">
        <ele>237.247035</ele>
        <time>2022-11-28T21:24:50.427Z</time>
      </trkpt>
      <trkpt lat="49.546586" lon="8.022132">
        <ele>237.542533</ele>
        <time>2022-11-28T21:25:12.058Z</time>
      </trkpt>
      <trkpt lat="49.545950" lon="8.021724">
        <ele>238.591540</ele>
        <time>2022-11-28T21:26:28.381Z</time>
      </trkpt>
      <trkpt lat="49.545779" lon="8.021644">
        <ele>238.863661</ele>
        <time>2022-11-28T21:26:48.027Z</time>
      </trkpt>
      <trkpt lat="49.545237" lon="8.021387">
        <ele>239.681529</ele>
        <time>2022-11-28T21:27:50.392Z</time>
      </trkpt>
      <trkpt lat="49.544477" lon="8.020616">
        <ele>240.977132</ele>
        <time>2022-11-28T21:29:27.529Z</time>
      </trkpt>
      <trkpt lat="49.544256" lon="8.020508">
        <ele>241.307265</ele>
        <time>2022-11-28T21:29:51.980Z</time>
      </trkpt>
      <trkpt lat="49.542571" lon="8.019997">
        <ele>238.319558</ele>
        <time>2022-11-28T21:32:50.160Z</time>
      </trkpt>
      <trkpt lat="49.541956" lon="8.019706">
        <ele>236.001002</ele>
        <time>2022-11-28T21:34:00.593Z</time>
      </trkpt>
      <trkpt lat="49.541344" lon="8.019232">
        <ele>232.780005</ele>
        <time>2022-11-28T21:35:15.957Z</time>
      </trkpt>
      <trkpt lat="49.541244" lon="8.019094">
        <ele>232.148757</ele>
        <time>2022-11-28T21:35:31.028Z</time>
      </trkpt>
      <trkpt lat="49.541153" lon="8.018925">
        <ele>231.478623</ele>
        <time>2022-11-28T21:35:47.210Z</time>
      </trkpt>
      <trkpt lat="49.541019" lon="8.018086">
        <ele>228.970136</ele>
        <time>2022-11-28T21:36:49.036Z</time>
      </trkpt>
      <trkpt lat="49.540709" lon="8.017192">
        <ele>226.806311</ele>
        <time>2022-11-28T21:37:59.306Z</time>
      </trkpt>
      <trkpt lat="49.540638" lon="8.016895">
        <ele>226.130643</ele>
        <time>2022-11-28T21:38:21.391Z</time>
      </trkpt>
      <trkpt lat="49.540561" lon="8.016697">
        <ele>225.637875</ele>
        <time>2022-11-28T21:38:36.928Z</time>
      </trkpt>
      <trkpt lat="49.539812" lon="8.016694">
        <ele>223.225915</ele>
        <time>2022-11-28T21:39:56.211Z</time>
      </trkpt>
      <trkpt lat="49.539421" lon="8.016602">
        <ele>222.306025</ele>
        <time>2022-11-28T21:40:38.044Z</time>
      </trkpt>
      <trkpt lat="49.538969" lon="8.016450">
        <ele>221.230066</ele>
        <time>2022-11-28T21:41:26.812Z</time>
      </trkpt>
      <trkpt lat="49.538572" lon="8.016264">
        <ele>220.265030</ele>
        <time>2022-11-28T21:42:10.086Z</time>
      </trkpt>
      <trkpt lat="49.538377" lon="8.016103">
        <ele>219.750524</ele>
        <time>2022-11-28T21:42:33.099Z</time>
      </trkpt>
      <trkpt lat="49.538153" lon="8.015815">
        <ele>219.133505</ele>
        <time>2022-11-28T21:43:03.543Z</time>
      </trkpt>
      <trkpt lat="49.538015" lon="8.015549">
        <ele>218.947496</ele>
        <time>2022-11-28T21:43:26.499Z</time>
      </trkpt>
      <trkpt lat="49.537899" lon="8.015248">
        <ele>218.756285</ele>
        <time>2022-11-28T21:43:50.183Z</time>
      </trkpt>
      <trkpt lat="49.537475" lon="8.014289">
        <ele>218.122465</ele>
        <time>2022-11-28T21:45:07.530Z</time>
      </trkpt>
      <trkpt lat="49.537339" lon="8.013801">
        <ele>217.832378</ele>
        <time>2022-11-28T21:45:42.132Z</time>
      </trkpt>
      <trkpt lat="49.537282" lon="8.013024">
        <ele>217.654495</ele>
        <time>2022-11-28T21:46:34.989Z</time>
      </trkpt>
      <trkpt lat="49.537165" lon="8.012140">
        <ele>217.654495</ele>
        <time>2022-11-28T21:47:36.903Z</time>
      </trkpt>
      <trkpt lat="49.536988" lon="8.012165">
        <ele>217.654495</ele>
        <time>2022-11-28T21:47:55.756Z</time>
      </trkpt>
      <trkpt lat="49.536827" lon="8.012207">
        <ele>217.654495</ele>
        <time>2022-11-28T21:48:13.091Z</time>
      </trkpt>
      <trkpt lat="49.536522" lon="8.012327">
        <ele>217.654495</ele>
        <time>2022-11-28T21:48:46.740Z</time>
      </trkpt>
      <trkpt lat="49.536351" lon="8.012475">
        <ele>217.654495</ele>
        <time>2022-11-28T21:49:07.727Z</time>
      </trkpt>
    </trkseg>
  </trk>
</gpx>